Time,TemperatureF,DewpointF,PressureIn,WindDirection,WindDirectionDegrees,WindSpeedMPH,WindSpeedGustMPH,Humidity,HourlyPrecipIn,Conditions,Clouds,dailyrainin,SolarRadiationWatts/m^2,SoftwareType,DateUTC
2013-02-24 00:11:00,10.0,9.0,-100.00,SSW,211,3.0,6.0,94,0.00,,,0.00,1.000000,,2013-02-24 06:11:00,
2013-02-24 00:21:00,10.0,9.0,-100.00,SSW,211,3.0,6.0,94,0.00,,,0.00,1.000000,,2013-02-24 06:21:00,
2013-02-24 00:32:00,10.0,9.0,-100.00,SSW,211,3.0,6.0,94,0.00,,,0.00,1.000000,,2013-02-24 06:32:00,
2013-02-24 00:42:00,10.0,9.0,-100.00,SSW,211,3.0,6.0,94,0.00,,,0.00,1.000000,,2013-02-24 06:42:00,
2013-02-24 01:12:00,8.0,6.0,-100.00,SSW,198,4.0,5.0,91,0.00,,,0.00,1.000000,,2013-02-24 07:12:00,
2013-02-24 01:21:00,8.0,6.0,-100.00,SSW,198,4.0,5.0,91,0.00,,,0.00,1.000000,,2013-02-24 07:21:00,
2013-02-24 01:32:00,8.0,6.0,-100.00,SSW,198,4.0,5.0,91,0.00,,,0.00,1.000000,,2013-02-24 07:32:00,
2013-02-24 01:42:00,8.0,6.0,-100.00,SSW,198,4.0,5.0,91,0.00,,,0.00,1.000000,,2013-02-24 07:42:00,
2013-02-24 02:11:00,5.0,3.0,-100.00,SSW,208,1.0,6.0,91,0.00,,,0.00,1.000000,,2013-02-24 08:11:00,
2013-02-24 02:22:00,5.0,3.0,-100.00,SSW,208,1.0,6.0,91,0.00,,,0.00,1.000000,,2013-02-24 08:22:00,
2013-02-24 02:31:00,5.0,3.0,-100.00,SSW,208,1.0,6.0,91,0.00,,,0.00,1.000000,,2013-02-24 08:31:00,
2013-02-24 02:42:00,5.0,3.0,-100.00,SSW,208,1.0,6.0,91,0.00,,,0.00,1.000000,,2013-02-24 08:42:00,
2013-02-24 03:11:00,5.0,2.0,-100.00,NE,41,0.0,0.0,89,0.00,,,0.00,1.000000,,2013-02-24 09:11:00,
2013-02-24 03:21:00,5.0,2.0,-100.00,NE,41,0.0,0.0,89,0.00,,,0.00,1.000000,,2013-02-24 09:21:00,
2013-02-24 03:31:00,5.0,2.0,-100.00,NE,41,0.0,0.0,89,0.00,,,0.00,1.000000,,2013-02-24 09:31:00,
2013-02-24 03:42:00,5.0,2.0,-100.00,NE,41,0.0,0.0,89,0.00,,,0.00,1.000000,,2013-02-24 09:42:00,
2013-02-24 04:11:00,3.0,0.0,-100.00,West,261,1.0,4.0,88,0.00,,,0.00,1.000000,,2013-02-24 10:11:00,
2013-02-24 04:21:00,3.0,0.0,-100.00,West,261,1.0,4.0,88,0.00,,,0.00,1.000000,,2013-02-24 10:21:00,
2013-02-24 04:32:00,3.0,0.0,-100.00,West,261,1.0,4.0,88,0.00,,,0.00,1.000000,,2013-02-24 10:32:00,
2013-02-24 04:41:00,3.0,0.0,-100.00,West,261,1.0,4.0,88,0.00,,,0.00,1.000000,,2013-02-24 10:41:00,
2013-02-24 05:11:00,2.0,-1.0,-100.00,SSW,211,2.0,3.0,85,0.00,,,0.00,1.000000,,2013-02-24 11:11:00,
2013-02-24 05:21:00,2.0,-1.0,-100.00,SSW,211,2.0,3.0,85,0.00,,,0.00,1.000000,,2013-02-24 11:21:00,
2013-02-24 05:32:00,2.0,-1.0,-100.00,SSW,211,2.0,3.0,85,0.00,,,0.00,1.000000,,2013-02-24 11:32:00,
2013-02-24 05:41:00,2.0,-1.0,-100.00,SSW,211,2.0,3.0,85,0.00,,,0.00,1.000000,,2013-02-24 11:41:00,
2013-02-24 06:11:00,0.0,-4.0,-100.00,WSW,239,0.0,2.0,82,0.00,,,0.00,1.000000,,2013-02-24 12:11:00,
2013-02-24 06:22:00,0.0,-4.0,-100.00,WSW,239,0.0,2.0,82,0.00,,,0.00,1.000000,,2013-02-24 12:22:00,
2013-02-24 06:32:00,0.0,-4.0,-100.00,WSW,239,0.0,2.0,82,0.00,,,0.00,1.000000,,2013-02-24 12:32:00,
2013-02-24 06:46:00,0.0,-4.0,-100.00,WSW,239,0.0,2.0,82,0.00,,,0.00,1.000000,,2013-02-24 12:46:00,
2013-02-24 07:17:00,-1.0,-5.0,-100.00,WSW,241,1.0,2.0,84,0.00,,,0.00,1.000000,,2013-02-24 13:17:00,
2013-02-24 07:34:00,-1.0,-5.0,-100.00,WSW,241,1.0,2.0,84,0.00,,,0.00,1.000000,,2013-02-24 13:34:00,
2013-02-24 07:44:00,-1.0,-5.0,-100.00,WSW,241,1.0,2.0,84,0.00,,,0.00,1.000000,,2013-02-24 13:44:00,
2013-02-24 08:14:00,3.0,-1.0,-100.00,NE,47,2.0,3.0,82,0.00,,,0.00,43.000000,,2013-02-24 14:14:00,
2013-02-24 08:24:00,3.0,-1.0,-100.00,NE,47,2.0,3.0,82,0.00,,,0.00,43.000000,,2013-02-24 14:24:00,
2013-02-24 08:44:00,3.0,-1.0,-100.00,NE,47,2.0,3.0,82,0.00,,,0.00,43.000000,,2013-02-24 14:44:00,
2013-02-24 09:13:00,10.0,6.0,-100.00,NW,304,0.0,4.0,83,0.00,,,0.00,162.000000,,2013-02-24 15:13:00,
2013-02-24 09:23:00,10.0,6.0,-100.00,NW,304,0.0,4.0,83,0.00,,,0.00,162.000000,,2013-02-24 15:23:00,
2013-02-24 09:32:00,10.0,6.0,-100.00,NW,304,0.0,4.0,83,0.00,,,0.00,162.000000,,2013-02-24 15:32:00,
2013-02-24 09:42:00,10.0,6.0,-100.00,NW,304,0.0,4.0,83,0.00,,,0.00,162.000000,,2013-02-24 15:42:00,
2013-02-24 10:11:00,16.0,12.0,-100.00,NW,322,1.0,3.0,84,0.00,,,0.00,287.000000,,2013-02-24 16:11:00,
2013-02-24 10:21:00,16.0,12.0,-100.00,NW,322,1.0,3.0,84,0.00,,,0.00,287.000000,,2013-02-24 16:21:00,
2013-02-24 10:32:00,16.0,12.0,-100.00,NW,322,1.0,3.0,84,0.00,,,0.00,287.000000,,2013-02-24 16:32:00,
2013-02-24 10:42:00,16.0,12.0,-100.00,NW,322,1.0,3.0,84,0.00,,,0.00,287.000000,,2013-02-24 16:42:00,
2013-02-24 11:11:00,25.0,20.0,-100.00,WNW,286,1.0,4.0,80,0.00,,,0.00,480.000000,,2013-02-24 17:11:00,
2013-02-24 11:21:00,25.0,20.0,-100.00,WNW,286,1.0,4.0,80,0.00,,,0.00,480.000000,,2013-02-24 17:21:00,
2013-02-24 11:32:00,25.0,20.0,-100.00,WNW,286,1.0,4.0,80,0.00,,,0.00,480.000000,,2013-02-24 17:32:00,
2013-02-24 11:42:00,25.0,20.0,-100.00,WNW,286,1.0,4.0,80,0.00,,,0.00,480.000000,,2013-02-24 17:42:00,
2013-02-24 12:11:00,29.0,17.0,-100.00,WSW,246,3.0,5.0,61,0.00,,,0.00,597.000000,,2013-02-24 18:11:00,
2013-02-24 12:22:00,29.0,17.0,-100.00,WSW,246,3.0,5.0,61,0.00,,,0.00,597.000000,,2013-02-24 18:22:00,
2013-02-24 12:32:00,29.0,17.0,-100.00,WSW,246,3.0,5.0,61,0.00,,,0.00,597.000000,,2013-02-24 18:32:00,
2013-02-24 12:42:00,29.0,17.0,-100.00,WSW,246,3.0,5.0,61,0.00,,,0.00,597.000000,,2013-02-24 18:42:00,
2013-02-24 13:11:00,35.0,18.0,-100.00,SW,220,3.0,7.0,50,0.00,,,0.00,664.000000,,2013-02-24 19:11:00,
2013-02-24 13:22:00,35.0,18.0,-100.00,SW,220,3.0,7.0,50,0.00,,,0.00,664.000000,,2013-02-24 19:22:00,
2013-02-24 13:32:00,35.0,18.0,-100.00,SW,220,3.0,7.0,50,0.00,,,0.00,664.000000,,2013-02-24 19:32:00,
2013-02-24 13:42:00,35.0,18.0,-100.00,SW,220,3.0,7.0,50,0.00,,,0.00,664.000000,,2013-02-24 19:42:00,
2013-02-24 14:11:00,37.0,21.0,-100.00,SW,226,3.0,5.0,51,0.00,,,0.00,540.000000,,2013-02-24 20:11:00,
2013-02-24 14:21:00,37.0,21.0,-100.00,SW,226,3.0,5.0,51,0.00,,,0.00,540.000000,,2013-02-24 20:21:00,
2013-02-24 14:32:00,37.0,21.0,-100.00,SW,226,3.0,5.0,51,0.00,,,0.00,540.000000,,2013-02-24 20:32:00,
2013-02-24 14:42:00,37.0,21.0,-100.00,SW,226,3.0,5.0,51,0.00,,,0.00,540.000000,,2013-02-24 20:42:00,
2013-02-24 15:11:00,35.0,19.0,-100.00,SSE,167,7.0,11.0,52,0.00,,,0.00,556.000000,,2013-02-24 21:11:00,
2013-02-24 15:21:00,35.0,19.0,-100.00,SSE,167,7.0,11.0,52,0.00,,,0.00,556.000000,,2013-02-24 21:21:00,
2013-02-24 15:32:00,35.0,19.0,-100.00,SSE,167,7.0,11.0,52,0.00,,,0.00,556.000000,,2013-02-24 21:32:00,
2013-02-24 15:42:00,35.0,19.0,-100.00,SSE,167,7.0,11.0,52,0.00,,,0.00,556.000000,,2013-02-24 21:42:00,
2013-02-24 16:11:00,35.0,20.0,-100.00,SSW,202,4.0,11.0,55,0.00,,,0.00,359.000000,,2013-02-24 22:11:00,
2013-02-24 16:21:00,35.0,20.0,-100.00,SSW,202,4.0,11.0,55,0.00,,,0.00,359.000000,,2013-02-24 22:21:00,
2013-02-24 16:31:00,35.0,20.0,-100.00,SSW,202,4.0,11.0,55,0.00,,,0.00,359.000000,,2013-02-24 22:31:00,
2013-02-24 16:41:00,35.0,20.0,-100.00,SSW,202,4.0,11.0,55,0.00,,,0.00,359.000000,,2013-02-24 22:41:00,
2013-02-24 17:11:00,34.0,17.0,-100.00,ESE,112,4.0,7.0,50,0.00,,,0.00,274.000000,,2013-02-24 23:11:00,
2013-02-24 17:21:00,34.0,17.0,-100.00,ESE,112,4.0,7.0,50,0.00,,,0.00,274.000000,,2013-02-24 23:21:00,
2013-02-24 17:32:00,34.0,17.0,-100.00,ESE,112,4.0,7.0,50,0.00,,,0.00,274.000000,,2013-02-24 23:32:00,
2013-02-24 17:42:00,34.0,17.0,-100.00,ESE,112,4.0,7.0,50,0.00,,,0.00,274.000000,,2013-02-24 23:42:00,
2013-02-24 18:11:00,30.0,17.0,-100.00,ESE,106,2.0,6.0,58,0.00,,,0.00,67.000000,,2013-02-25 00:11:00,
2013-02-24 18:21:00,30.0,17.0,-100.00,ESE,106,2.0,6.0,58,0.00,,,0.00,67.000000,,2013-02-25 00:21:00,
2013-02-24 18:32:00,30.0,17.0,-100.00,ESE,106,2.0,6.0,58,0.00,,,0.00,67.000000,,2013-02-25 00:32:00,
2013-02-24 18:42:00,30.0,17.0,-100.00,ESE,106,2.0,6.0,58,0.00,,,0.00,67.000000,,2013-02-25 00:42:00,
2013-02-24 19:11:00,26.0,17.0,-100.00,SSW,202,1.0,3.0,69,0.00,,,0.00,2.000000,,2013-02-25 01:11:00,
2013-02-24 19:21:00,26.0,17.0,-100.00,SSW,202,1.0,3.0,69,0.00,,,0.00,2.000000,,2013-02-25 01:21:00,
2013-02-24 19:31:00,26.0,17.0,-100.00,SSW,202,1.0,3.0,69,0.00,,,0.00,2.000000,,2013-02-25 01:31:00,
2013-02-24 19:42:00,26.0,17.0,-100.00,SSW,202,1.0,3.0,69,0.00,,,0.00,2.000000,,2013-02-25 01:42:00,
2013-02-24 20:11:00,24.0,16.0,-100.00,ESE,119,1.0,4.0,72,0.00,,,0.00,1.000000,,2013-02-25 02:11:00,
2013-02-24 20:21:00,24.0,16.0,-100.00,ESE,119,1.0,4.0,72,0.00,,,0.00,1.000000,,2013-02-25 02:21:00,
2013-02-24 20:32:00,24.0,16.0,-100.00,ESE,119,1.0,4.0,72,0.00,,,0.00,1.000000,,2013-02-25 02:32:00,
2013-02-24 20:41:00,24.0,16.0,-100.00,ESE,119,1.0,4.0,72,0.00,,,0.00,1.000000,,2013-02-25 02:41:00,
2013-02-24 21:11:00,23.0,19.0,-100.00,South,170,0.0,1.0,83,0.00,,,0.00,1.000000,,2013-02-25 03:11:00,
2013-02-24 21:21:00,23.0,19.0,-100.00,South,170,0.0,1.0,83,0.00,,,0.00,1.000000,,2013-02-25 03:21:00,
2013-02-24 21:31:00,23.0,19.0,-100.00,South,170,0.0,1.0,83,0.00,,,0.00,1.000000,,2013-02-25 03:31:00,
2013-02-24 21:42:00,23.0,19.0,-100.00,South,170,0.0,1.0,83,0.00,,,0.00,1.000000,,2013-02-25 03:42:00,
2013-02-24 22:11:00,23.0,19.0,-100.00,SSW,203,1.0,3.0,85,0.00,,,0.00,1.000000,,2013-02-25 04:11:00,
2013-02-24 22:21:00,23.0,19.0,-100.00,SSW,203,1.0,3.0,85,0.00,,,0.00,1.000000,,2013-02-25 04:21:00,
2013-02-24 22:32:00,23.0,19.0,-100.00,SSW,203,1.0,3.0,85,0.00,,,0.00,1.000000,,2013-02-25 04:32:00,
2013-02-24 22:41:00,23.0,19.0,-100.00,SSW,203,1.0,3.0,85,0.00,,,0.00,1.000000,,2013-02-25 04:41:00,
2013-02-24 23:11:00,23.0,19.0,-100.00,WSW,255,2.0,3.0,83,0.00,,,0.00,1.000000,,2013-02-25 05:11:00,
2013-02-24 23:22:00,23.0,19.0,-100.00,WSW,255,2.0,3.0,83,0.00,,,0.00,1.000000,,2013-02-25 05:22:00,
2013-02-24 23:32:00,23.0,19.0,-100.00,WSW,255,2.0,3.0,83,0.00,,,0.00,1.000000,,2013-02-25 05:32:00,
2013-02-24 23:42:00,23.0,19.0,-100.00,WSW,255,2.0,3.0,83,0.00,,,0.00,1.000000,,2013-02-25 05:42:00,